createdAt,value
2023-05-06T00:00:18.007Z,2297.00
2023-05-06T00:01:17.954Z,2268.00
2023-05-06T00:02:17.795Z,2296.00
2023-05-06T00:03:17.888Z,2301.00
2023-05-06T00:04:17.912Z,2311.00
2023-05-06T00:05:17.931Z,2315.00
2023-05-06T00:06:18.012Z,2292.00
2023-05-06T00:07:18.055Z,2325.00
2023-05-06T00:08:18.085Z,2302.00
2023-05-06T00:09:18.164Z,2307.00
2023-05-06T00:10:18.197Z,2314.00
2023-05-06T00:11:18.257Z,2334.00
2023-05-06T00:12:18.346Z,2333.00
2023-05-06T00:13:18.432Z,2336.00
2023-05-06T00:14:18.437Z,2325.00
2023-05-06T00:15:18.573Z,2328.00
2023-05-06T00:16:18.635Z,2347.00
2023-05-06T00:17:18.626Z,2337.00
2023-05-06T00:18:18.677Z,2333.00
2023-05-06T00:19:18.865Z,2323.00
2023-05-06T00:20:18.797Z,2330.00
2023-05-06T00:21:18.845Z,2336.00
2023-05-06T00:22:18.900Z,2344.00
2023-05-06T00:23:18.937Z,2330.00
2023-05-06T00:24:18.952Z,2323.00
2023-05-06T00:25:19.001Z,2330.00
2023-05-06T00:26:19.044Z,2345.00
2023-05-06T00:27:19.086Z,2336.00
2023-05-06T00:28:19.149Z,2358.00
2023-05-06T00:29:19.218Z,2332.00
2023-05-06T00:30:19.259Z,2337.00
2023-05-06T00:31:19.326Z,2332.00
2023-05-06T00:32:19.355Z,2325.00
2023-05-06T00:33:19.387Z,2333.00
2023-05-06T00:34:19.440Z,2324.00
2023-05-06T00:35:19.543Z,2317.00
2023-05-06T00:36:19.645Z,2323.00
2023-05-06T00:37:19.552Z,2326.00
2023-05-06T00:38:19.594Z,2331.00
2023-05-06T00:39:19.640Z,2317.00
2023-05-06T00:40:19.658Z,2322.00
2023-05-06T00:41:19.666Z,2321.00
2023-05-06T00:42:19.709Z,2334.00
2023-05-06T00:43:19.762Z,2337.00
2023-05-06T00:44:20.632Z,2336.00
2023-05-06T00:45:19.800Z,2352.00
2023-05-06T00:46:19.836Z,2360.00
2023-05-06T00:47:19.868Z,2370.00
2023-05-06T00:48:19.901Z,2359.00
2023-05-06T00:49:19.907Z,2355.00
2023-05-06T00:50:19.963Z,2367.00
2023-05-06T00:51:20.048Z,2351.00
2023-05-06T00:52:20.015Z,2360.00
2023-05-06T00:53:20.036Z,2347.00
2023-05-06T00:54:20.068Z,2347.00
2023-05-06T00:55:20.115Z,2353.00
2023-05-06T00:56:20.895Z,2357.00
2023-05-06T00:57:20.123Z,2357.00
2023-05-06T00:58:20.517Z,2359.00
2023-05-06T00:59:20.604Z,2370.00
2023-05-06T01:00:20.252Z,2361.00
2023-05-06T01:01:20.439Z,2377.00
2023-05-06T01:02:20.450Z,2365.00
2023-05-06T01:03:20.540Z,2377.00
2023-05-06T01:04:20.475Z,2357.00
2023-05-06T01:05:20.544Z,2368.00
2023-05-06T01:06:20.605Z,2374.00
2023-05-06T01:07:20.646Z,2373.00
2023-05-06T01:08:20.610Z,2368.00
2023-05-06T01:09:20.651Z,2376.00
2023-05-06T01:10:20.706Z,2379.00
2023-05-06T01:11:20.698Z,2371.00
2023-05-06T01:12:20.721Z,2381.00
2023-05-06T01:13:20.833Z,2385.00
2023-05-06T01:14:20.748Z,2375.00
2023-05-06T01:15:20.764Z,2373.00
2023-05-06T01:16:20.790Z,2384.00
2023-05-06T01:17:20.738Z,2371.00
2023-05-06T01:18:20.798Z,2365.00
2023-05-06T01:19:20.811Z,2366.00
2023-05-06T01:20:20.779Z,2361.00
2023-05-06T01:21:20.776Z,2368.00
2023-05-06T01:22:20.772Z,2351.00
2023-05-06T01:23:20.849Z,2346.00
2023-05-06T01:24:20.794Z,2349.00
2023-05-06T01:25:20.822Z,2332.00
2023-05-06T01:26:20.845Z,2336.00
2023-05-06T01:27:20.859Z,2331.00
2023-05-06T01:28:20.852Z,2326.00
2023-05-06T01:29:20.874Z,2322.00
2023-05-06T01:30:20.886Z,2322.00
2023-05-06T01:31:20.886Z,2320.00
2023-05-06T01:32:20.878Z,2330.00
2023-05-06T01:33:20.898Z,2335.00
2023-05-06T01:34:20.828Z,2324.00
2023-05-06T01:35:20.831Z,2309.00
2023-05-06T01:36:20.870Z,2313.00
2023-05-06T01:37:20.905Z,2320.00
2023-05-06T01:38:20.878Z,2315.00
2023-05-06T01:39:20.935Z,2306.00
2023-05-06T01:40:20.870Z,2326.00
2023-05-06T01:41:20.840Z,2319.00
2023-05-06T01:42:20.861Z,2317.00
2023-05-06T01:43:20.838Z,2320.00
2023-05-06T01:44:20.838Z,2316.00
2023-05-06T01:45:20.892Z,2326.00
2023-05-06T01:46:20.878Z,2334.00
2023-05-06T01:47:20.822Z,2320.00
2023-05-06T01:48:20.827Z,2312.00
2023-05-06T01:49:20.836Z,2320.00
2023-05-06T01:50:20.829Z,2314.00
2023-05-06T01:51:20.839Z,2312.00
2023-05-06T01:52:20.795Z,2309.00
2023-05-06T01:53:20.787Z,2307.00
2023-05-06T01:54:20.793Z,2309.00
2023-05-06T01:55:20.878Z,2323.00
2023-05-06T01:56:20.817Z,2318.00
2023-05-06T01:57:20.794Z,2322.00
2023-05-06T01:58:20.807Z,2307.00
2023-05-06T01:59:20.818Z,2319.00
2023-05-06T02:00:20.799Z,2305.00
2023-05-06T02:01:20.803Z,2308.00
2023-05-06T02:02:20.791Z,2305.00
2023-05-06T02:03:20.861Z,2303.00
2023-05-06T02:04:20.789Z,2306.00
2023-05-06T02:05:20.797Z,2290.00
2023-05-06T02:06:20.769Z,2295.00
2023-05-06T02:07:20.772Z,2308.00
2023-05-06T02:08:20.775Z,2291.00
2023-05-06T02:09:20.779Z,2289.00
2023-05-06T02:10:20.763Z,2276.00
2023-05-06T02:11:20.778Z,2292.00
2023-05-06T02:12:20.756Z,2284.00
2023-05-06T02:13:20.867Z,2270.00
2023-05-06T02:14:20.763Z,2274.00
2023-05-06T02:15:20.765Z,2273.00
2023-05-06T02:16:20.781Z,2267.00
2023-05-06T02:17:20.741Z,2255.00
2023-05-06T02:18:20.731Z,2267.00
2023-05-06T02:19:20.754Z,2261.00
2023-05-06T02:20:20.716Z,2257.00
2023-05-06T02:21:20.697Z,2267.00
2023-05-06T02:22:20.743Z,2246.00
2023-05-06T02:23:20.720Z,2260.00
2023-05-06T02:24:20.683Z,2251.00
2023-05-06T02:25:20.732Z,2253.00
2023-05-06T02:26:20.694Z,2247.00
2023-05-06T02:27:20.711Z,2243.00
2023-05-06T02:28:20.687Z,2242.00
2023-05-06T02:29:21.662Z,2248.00
2023-05-06T02:30:20.690Z,2236.00
2023-05-06T02:31:20.722Z,2218.00
2023-05-06T02:32:20.706Z,2231.00
2023-05-06T02:33:20.678Z,2248.00
2023-05-06T02:34:20.712Z,2242.00
2023-05-06T02:35:20.702Z,2237.00
2023-05-06T02:36:20.685Z,2236.00
2023-05-06T02:37:20.690Z,2232.00
2023-05-06T02:38:20.677Z,2220.00
2023-05-06T02:39:20.750Z,2226.00
2023-05-06T02:40:20.699Z,2230.00
2023-05-06T02:41:20.678Z,2240.00
2023-05-06T02:42:20.707Z,2245.00
2023-05-06T02:43:20.726Z,2227.00
2023-05-06T02:44:20.651Z,2227.00
2023-05-06T02:45:20.664Z,2231.00
2023-05-06T02:46:20.746Z,2231.00
2023-05-06T02:47:20.693Z,2235.00
2023-05-06T02:48:20.672Z,2245.00
2023-05-06T02:49:20.642Z,2243.00
2023-05-06T02:50:20.631Z,2240.00
2023-05-06T02:51:20.664Z,2252.00
2023-05-06T02:52:20.660Z,2245.00
2023-05-06T02:53:20.675Z,2253.00
2023-05-06T02:54:20.665Z,2254.00
2023-05-06T02:55:20.650Z,2249.00
2023-05-06T02:56:20.668Z,2247.00
2023-05-06T02:57:20.638Z,2252.00
2023-05-06T02:58:20.631Z,2247.00
2023-05-06T02:59:20.765Z,2251.00
2023-05-06T03:00:20.644Z,2255.00
2023-05-06T03:01:20.674Z,2272.00
2023-05-06T03:02:20.625Z,2254.00
2023-05-06T03:03:20.645Z,2249.00
2023-05-06T03:04:20.647Z,2254.00
2023-05-06T03:05:20.623Z,2247.00
2023-05-06T03:06:20.628Z,2231.00
2023-05-06T03:07:20.631Z,2241.00
2023-05-06T03:08:20.614Z,2242.00
2023-05-06T03:09:20.640Z,2256.00
2023-05-06T03:10:20.622Z,2262.00
2023-05-06T03:11:20.593Z,2249.00
2023-05-06T03:12:20.612Z,2252.00
2023-05-06T03:13:20.647Z,2253.00
2023-05-06T03:14:20.622Z,2251.00
2023-05-06T03:15:20.662Z,2247.00
2023-05-06T03:16:20.617Z,2243.00
2023-05-06T03:17:20.598Z,2239.00
2023-05-06T03:18:20.584Z,2247.00
2023-05-06T03:19:20.608Z,2250.00
2023-05-06T03:20:20.620Z,2257.00
2023-05-06T03:21:20.616Z,2243.00
2023-05-06T03:22:20.613Z,2252.00
2023-05-06T03:23:20.598Z,2240.00
2023-05-06T03:24:20.577Z,2245.00
2023-05-06T03:25:20.595Z,2232.00
2023-05-06T03:26:20.589Z,2234.00
2023-05-06T03:27:20.572Z,2235.00
2023-05-06T03:28:20.574Z,2248.00
2023-05-06T03:29:20.562Z,2231.00
2023-05-06T03:30:20.625Z,2242.00
2023-05-06T03:31:20.710Z,2231.00
2023-05-06T03:32:20.574Z,2226.00
2023-05-06T03:33:20.574Z,2212.00
2023-05-06T03:34:20.572Z,2220.00
2023-05-06T03:35:20.552Z,2199.00
2023-05-06T03:36:20.590Z,2205.00
2023-05-06T03:37:20.576Z,2204.00
2023-05-06T03:38:20.582Z,2208.00
2023-05-06T03:39:20.585Z,2194.00
2023-05-06T03:40:20.592Z,2204.00
2023-05-06T03:41:20.572Z,2188.00
2023-05-06T03:42:20.585Z,2192.00
2023-05-06T03:43:20.586Z,2192.00
2023-05-06T03:44:20.598Z,2188.00
2023-05-06T03:45:20.583Z,2176.00
2023-05-06T03:46:20.668Z,2170.00
2023-05-06T03:47:20.750Z,2176.00
2023-05-06T03:48:20.605Z,2175.00
2023-05-06T03:49:20.614Z,2161.00
2023-05-06T03:50:20.585Z,2150.00
2023-05-06T03:51:20.573Z,2131.00
2023-05-06T03:52:20.599Z,2115.00
2023-05-06T03:53:20.621Z,2131.00
2023-05-06T03:54:20.584Z,2127.00
2023-05-06T03:55:20.585Z,2115.00
2023-05-06T03:56:20.590Z,2126.00
2023-05-06T03:57:20.601Z,2124.00
2023-05-06T03:58:20.617Z,2119.00
2023-05-06T03:59:20.606Z,2134.00
2023-05-06T04:00:20.611Z,2122.00
2023-05-06T04:01:20.577Z,2118.00
2023-05-06T04:02:20.667Z,2117.00
2023-05-06T04:03:20.751Z,2112.00
2023-05-06T04:04:20.610Z,2106.00
2023-05-06T04:05:20.602Z,2108.00
2023-05-06T04:06:20.615Z,2112.00
2023-05-06T04:07:20.630Z,2111.00
2023-05-06T04:08:20.622Z,2105.00
2023-05-06T04:09:20.617Z,2110.00
2023-05-06T04:10:20.636Z,2088.00
2023-05-06T04:11:20.622Z,2082.00
2023-05-06T04:12:20.673Z,2085.00
2023-05-06T04:13:20.692Z,2075.00
2023-05-06T04:14:20.671Z,2065.00
2023-05-06T04:15:20.666Z,2049.00
2023-05-06T04:16:20.690Z,2039.00
2023-05-06T04:17:20.644Z,2042.00
2023-05-06T04:18:20.654Z,2044.00
2023-05-06T04:19:20.790Z,2031.00
2023-05-06T04:20:20.648Z,2038.00
2023-05-06T04:21:20.665Z,2051.00
2023-05-06T04:22:20.650Z,2051.00
2023-05-06T04:23:20.691Z,2041.00
2023-05-06T04:24:20.644Z,2056.00
2023-05-06T04:25:20.636Z,2062.00
2023-05-06T04:26:20.658Z,2068.00
2023-05-06T04:27:20.674Z,2065.00
2023-05-06T04:28:20.693Z,2093.00
2023-05-06T04:29:20.690Z,2089.00
2023-05-06T04:30:20.674Z,2084.00
2023-05-06T04:31:20.684Z,2085.00
2023-05-06T04:32:20.688Z,2082.00
2023-05-06T04:33:20.721Z,2106.00
2023-05-06T04:34:20.684Z,2079.00
2023-05-06T04:35:20.721Z,2089.00
2023-05-06T04:36:20.729Z,2093.00
2023-05-06T04:37:20.709Z,2093.00
2023-05-06T04:38:20.716Z,2090.00
2023-05-06T04:39:20.709Z,2090.00
2023-05-06T04:40:20.730Z,2103.00
2023-05-06T04:41:20.729Z,2097.00
2023-05-06T04:42:20.844Z,2106.00
2023-05-06T04:43:20.748Z,2107.00
2023-05-06T04:44:20.760Z,2090.00
2023-05-06T04:45:20.760Z,2106.00
2023-05-06T04:46:20.817Z,2112.00
2023-05-06T04:47:20.768Z,2093.00
2023-05-06T04:48:20.778Z,2090.00
2023-05-06T04:49:20.787Z,2096.00
2023-05-06T04:50:20.762Z,2095.00
2023-05-06T04:51:20.847Z,2088.00
2023-05-06T04:52:20.782Z,2095.00
2023-05-06T04:53:20.823Z,2085.00
2023-05-06T04:54:20.813Z,2073.00
2023-05-06T04:55:20.844Z,2062.00
2023-05-06T04:56:20.788Z,2062.00
2023-05-06T04:57:20.802Z,2078.00
2023-05-06T04:58:20.809Z,2066.00
2023-05-06T04:59:20.831Z,2046.00
2023-05-06T05:00:20.796Z,2057.00
2023-05-06T05:01:20.963Z,2050.00
2023-05-06T05:02:20.901Z,2049.00
2023-05-06T05:03:20.905Z,2049.00
2023-05-06T05:04:20.841Z,2048.00
2023-05-06T05:05:20.829Z,2053.00
2023-05-06T05:06:20.848Z,2044.00
2023-05-06T05:07:20.917Z,2066.00
2023-05-06T05:08:20.870Z,2062.00
2023-05-06T05:09:20.840Z,2064.00
2023-05-06T05:10:20.851Z,2050.00
2023-05-06T05:11:20.836Z,2046.00
2023-05-06T05:12:20.842Z,2038.00
2023-05-06T05:13:20.882Z,2039.00
2023-05-06T05:14:20.853Z,2041.00
2023-05-06T05:15:20.826Z,2040.00
2023-05-06T05:16:20.908Z,2039.00
2023-05-06T05:17:20.862Z,2038.00
2023-05-06T05:18:20.862Z,2034.00
2023-05-06T05:19:20.846Z,2029.00
2023-05-06T05:20:20.857Z,2031.00
2023-05-06T05:21:20.865Z,2024.00
2023-05-06T05:22:20.869Z,2033.00
2023-05-06T05:23:20.917Z,2021.00
2023-05-06T05:24:20.891Z,2017.00
2023-05-06T05:25:20.883Z,2023.00
2023-05-06T05:26:20.904Z,2017.00
2023-05-06T05:27:20.882Z,2017.00
2023-05-06T05:28:20.880Z,2030.00
2023-05-06T05:29:20.863Z,2042.00
2023-05-06T05:30:20.899Z,2025.00
2023-05-06T05:31:20.940Z,2040.00
2023-05-06T05:32:20.877Z,2008.00
2023-05-06T05:33:20.975Z,2023.00
2023-05-06T05:34:20.882Z,2015.00
2023-05-06T05:35:20.900Z,2019.00
2023-05-06T05:36:20.880Z,2009.00
2023-05-06T05:37:20.871Z,1999.00
2023-05-06T05:38:20.879Z,1994.00
2023-05-06T05:39:20.936Z,2002.00
2023-05-06T05:40:20.897Z,2003.00
2023-05-06T05:41:20.862Z,1993.00
2023-05-06T05:42:20.872Z,1988.00
2023-05-06T05:43:20.880Z,1990.00
2023-05-06T05:44:20.865Z,1979.00
2023-05-06T05:45:20.870Z,1987.00
2023-05-06T05:46:20.939Z,1956.00
2023-05-06T05:47:20.895Z,1947.00
2023-05-06T05:48:20.893Z,1934.00
2023-05-06T05:49:20.878Z,1938.00
2023-05-06T05:50:20.868Z,1928.00
2023-05-06T05:51:20.870Z,1923.00
2023-05-06T05:52:20.875Z,1928.00
2023-05-06T05:53:20.894Z,1923.00
2023-05-06T05:54:20.885Z,1925.00
2023-05-06T05:55:20.907Z,1905.00
2023-05-06T05:56:20.924Z,1913.00
2023-05-06T05:57:20.865Z,1904.00
2023-05-06T05:58:20.897Z,1920.00
2023-05-06T05:59:20.879Z,1924.00
2023-05-06T06:00:20.893Z,1905.00
2023-05-06T06:01:20.866Z,1904.00
2023-05-06T06:02:20.980Z,1897.00
2023-05-06T06:03:20.974Z,1908.00
2023-05-06T06:04:20.915Z,1899.00
2023-05-06T06:05:20.880Z,1908.00
2023-05-06T06:06:20.903Z,1917.00
2023-05-06T06:07:20.907Z,1909.00
2023-05-06T06:08:20.885Z,1896.00
2023-05-06T06:09:20.944Z,1889.00
2023-05-06T06:10:20.887Z,1881.00
2023-05-06T06:11:20.978Z,1879.00
2023-05-06T06:12:20.882Z,1892.00
2023-05-06T06:13:20.976Z,1874.00
2023-05-06T06:14:20.861Z,1858.00
2023-05-06T06:15:20.902Z,1869.00
2023-05-06T06:16:20.947Z,1860.00
2023-05-06T06:17:20.881Z,1858.00
2023-05-06T06:18:20.893Z,1851.00
2023-05-06T06:19:20.904Z,1853.00
2023-05-06T06:20:20.885Z,1855.00
2023-05-06T06:21:20.906Z,1856.00
2023-05-06T06:22:20.869Z,1858.00
2023-05-06T06:23:20.904Z,1861.00
2023-05-06T06:24:20.851Z,1863.00
2023-05-06T06:25:20.895Z,1886.00
2023-05-06T06:26:20.860Z,1875.00
2023-05-06T06:27:20.922Z,1869.00
2023-05-06T06:28:20.837Z,1867.00
2023-05-06T06:29:20.864Z,1859.00
2023-05-06T06:30:20.849Z,1863.00
2023-05-06T06:31:20.850Z,1863.00
2023-05-06T06:32:20.875Z,1865.00
2023-05-06T06:33:20.844Z,1869.00
2023-05-06T06:34:20.836Z,1864.00
2023-05-06T06:35:20.863Z,1877.00
2023-05-06T06:36:20.863Z,1892.00
2023-05-06T06:37:20.831Z,1881.00
2023-05-06T06:38:20.836Z,1881.00
2023-05-06T06:39:20.831Z,1873.00
2023-05-06T06:40:20.816Z,1861.00
2023-05-06T06:41:20.799Z,1860.00
2023-05-06T06:42:20.794Z,1851.00
2023-05-06T06:43:20.812Z,1858.00
2023-05-06T06:44:20.821Z,1861.00
2023-05-06T06:45:20.789Z,1875.00
2023-05-06T06:46:20.917Z,1878.00
2023-05-06T06:47:20.802Z,1874.00
2023-05-06T06:48:20.833Z,1867.00
2023-05-06T06:49:20.855Z,1862.00
2023-05-06T06:50:20.874Z,1875.00
2023-05-06T06:51:20.852Z,1865.00
2023-05-06T06:52:20.848Z,1869.00
2023-05-06T06:53:20.919Z,1871.00
2023-05-06T06:54:20.877Z,1859.00
2023-05-06T06:55:20.872Z,1890.00
2023-05-06T06:56:20.867Z,1896.00
2023-05-06T06:57:20.910Z,1897.00
2023-05-06T06:58:20.864Z,1890.00
2023-05-06T06:59:20.875Z,1883.00
2023-05-06T07:00:20.932Z,1870.00
2023-05-06T07:01:20.958Z,1879.00
2023-05-06T07:02:20.968Z,1866.00
2023-05-06T07:03:20.970Z,1880.00
2023-05-06T07:04:20.992Z,1892.00
2023-05-06T07:05:21.033Z,1886.00
2023-05-06T07:06:21.033Z,1862.00
2023-05-06T07:07:21.037Z,1857.00
2023-05-06T07:08:21.097Z,1873.00
2023-05-06T07:09:21.113Z,1862.00
2023-05-06T07:10:21.117Z,1864.00
2023-05-06T07:11:21.173Z,1839.00
2023-05-06T07:12:21.178Z,1841.00
2023-05-06T07:13:21.299Z,1826.00
2023-05-06T07:14:21.260Z,1819.00
2023-05-06T07:15:21.358Z,1822.00
2023-05-06T07:16:21.393Z,1809.00
2023-05-06T07:17:21.373Z,1793.00
2023-05-06T07:18:21.464Z,1794.00
2023-05-06T07:19:21.425Z,1800.00
2023-05-06T07:20:21.472Z,1805.00
2023-05-06T07:21:21.496Z,1803.00
2023-05-06T07:22:21.530Z,1799.00
2023-05-06T07:23:21.591Z,1801.00
2023-05-06T07:24:21.634Z,1823.00
2023-05-06T07:25:21.636Z,1813.00
2023-05-06T07:26:21.711Z,1818.00
2023-05-06T07:27:21.870Z,1805.00
2023-05-06T07:28:21.778Z,1782.00
2023-05-06T07:29:21.851Z,1766.00
2023-05-06T07:30:23.342Z,1769.00
2023-05-06T07:31:22.024Z,1787.00
2023-05-06T07:32:21.984Z,1787.00
2023-05-06T07:33:21.988Z,1787.00
2023-05-06T07:34:21.992Z,1817.00
2023-05-06T07:35:22.054Z,1807.00
2023-05-06T07:36:22.147Z,1790.00
2023-05-06T07:37:22.205Z,1809.00
2023-05-06T07:38:22.225Z,1884.00
2023-05-06T07:39:22.283Z,1865.00
2023-05-06T07:40:22.348Z,1851.00
2023-05-06T07:41:22.418Z,1863.00
2023-05-06T07:42:22.473Z,1908.00
2023-05-06T07:43:22.545Z,1942.00
2023-05-06T07:44:22.609Z,1932.00
2023-05-06T07:45:22.665Z,1973.00
2023-05-06T07:46:22.776Z,2000.00
2023-05-06T07:47:22.931Z,1999.00
2023-05-06T07:48:22.882Z,2012.00
2023-05-06T07:49:22.906Z,2010.00
2023-05-06T07:50:23.004Z,2005.00
2023-05-06T07:51:23.031Z,1971.00
2023-05-06T07:52:23.067Z,1968.00
2023-05-06T07:53:23.130Z,1984.00
2023-05-06T07:54:23.206Z,1978.00
2023-05-06T07:55:23.236Z,1973.00
2023-05-06T07:56:23.279Z,1972.00
2023-05-06T07:57:23.321Z,1954.00
2023-05-06T07:58:23.380Z,1994.00
2023-05-06T07:59:23.455Z,2010.00
2023-05-06T08:00:23.489Z,1960.00
2023-05-06T08:01:23.550Z,1929.00
2023-05-06T08:02:23.732Z,1955.00
2023-05-06T08:03:23.870Z,1927.00
2023-05-06T08:04:23.705Z,1867.00
2023-05-06T08:05:23.772Z,1840.00
2023-05-06T08:06:23.836Z,1842.00
2023-05-06T08:07:23.887Z,1849.00
2023-05-06T08:08:23.911Z,1857.00
2023-05-06T08:09:23.951Z,1847.00
2023-05-06T08:10:24.025Z,1845.00
2023-05-06T08:11:24.075Z,1891.00
2023-05-06T08:12:24.163Z,1897.00
2023-05-06T08:13:24.211Z,1892.00
2023-05-06T08:14:24.233Z,1881.00
2023-05-06T08:15:24.297Z,1902.00
2023-05-06T08:16:25.501Z,1913.00
2023-05-06T08:17:24.403Z,1939.00
2023-05-06T08:18:24.464Z,1977.00
2023-05-06T08:19:24.750Z,1978.00
2023-05-06T08:20:24.532Z,2013.00
2023-05-06T08:21:24.574Z,1988.00
2023-05-06T08:22:24.661Z,1988.00
2023-05-06T08:23:24.695Z,2001.00
2023-05-06T08:24:24.711Z,1980.00
2023-05-06T08:25:24.762Z,1937.00
2023-05-06T08:26:24.798Z,1918.00
2023-05-06T08:27:24.869Z,1904.00
2023-05-06T08:28:25.458Z,1944.00
2023-05-06T08:29:24.940Z,1930.00
2023-05-06T08:30:24.965Z,1914.00
2023-05-06T08:31:25.071Z,1867.00
2023-05-06T08:32:25.278Z,1879.00
2023-05-06T08:33:25.162Z,1907.00
2023-05-06T08:34:25.151Z,1929.00
2023-05-06T08:35:25.292Z,1937.00
2023-05-06T08:36:25.281Z,1948.00
2023-05-06T08:37:25.314Z,1932.00
2023-05-06T08:38:25.377Z,1922.00
2023-05-06T08:39:25.432Z,1905.00
2023-05-06T08:40:25.426Z,1872.00
2023-05-06T08:41:25.467Z,1860.00
2023-05-06T08:42:25.528Z,1838.00
2023-05-06T08:43:25.587Z,1819.00
2023-05-06T08:44:25.668Z,1832.00
2023-05-06T08:45:27.394Z,1854.00
2023-05-06T08:46:25.713Z,1877.00
2023-05-06T08:47:25.698Z,1889.00
2023-05-06T08:48:25.669Z,1863.00
2023-05-06T08:49:25.662Z,1842.00
2023-05-06T08:50:25.662Z,1872.00
2023-05-06T08:51:26.169Z,1919.00
2023-05-06T08:52:25.656Z,1893.00
2023-05-06T08:53:25.632Z,1878.00
2023-05-06T08:54:25.600Z,1855.00
2023-05-06T08:55:25.600Z,1828.00
2023-05-06T08:56:25.598Z,1848.00
2023-05-06T08:57:25.569Z,1879.00
2023-05-06T08:58:25.623Z,1848.00
2023-05-06T08:59:25.578Z,1823.00
2023-05-06T09:00:25.561Z,1834.00
2023-05-06T09:01:25.592Z,1827.00
2023-05-06T09:02:25.588Z,1819.00
2023-05-06T09:03:25.738Z,1810.00
2023-05-06T09:04:25.517Z,1794.00
2023-05-06T09:05:25.538Z,1792.00
2023-05-06T09:06:25.586Z,1789.00
2023-05-06T09:07:25.515Z,1782.00
2023-05-06T09:08:25.488Z,1791.00
2023-05-06T09:09:25.494Z,1771.00
2023-05-06T09:10:25.504Z,1755.00
2023-05-06T09:11:25.517Z,1781.00
2023-05-06T09:12:25.478Z,1776.00
2023-05-06T09:13:25.457Z,1763.00
2023-05-06T09:14:25.452Z,1778.00
2023-05-06T09:15:25.425Z,1793.00
2023-05-06T09:16:25.476Z,1825.00
2023-05-06T09:17:25.458Z,1806.00
2023-05-06T09:18:25.411Z,1791.00
2023-05-06T09:19:25.409Z,1784.00
2023-05-06T09:20:25.393Z,1770.00
2023-05-06T09:21:25.434Z,1770.00
2023-05-06T09:22:25.563Z,1781.00
2023-05-06T09:23:25.631Z,1781.00
2023-05-06T09:24:25.579Z,1739.00
2023-05-06T09:25:25.633Z,1712.00
2023-05-06T09:26:25.659Z,1716.00
2023-05-06T09:27:25.739Z,1761.00
2023-05-06T09:28:25.760Z,1801.00
2023-05-06T09:29:25.809Z,1820.00
2023-05-06T09:30:25.862Z,1830.00
2023-05-06T09:31:25.975Z,1823.00
2023-05-06T09:32:25.961Z,1804.00
2023-05-06T09:33:25.953Z,1796.00
2023-05-06T09:34:26.027Z,1811.00
2023-05-06T09:35:26.074Z,1815.00
2023-05-06T09:36:26.130Z,1840.00
2023-05-06T09:37:26.150Z,1841.00
2023-05-06T09:38:26.342Z,1833.00
2023-05-06T09:39:26.210Z,1821.00
2023-05-06T09:40:26.255Z,1822.00
2023-05-06T09:41:26.332Z,1847.00
2023-05-06T09:42:26.366Z,1835.00
2023-05-06T09:43:26.405Z,1825.00
2023-05-06T09:44:26.476Z,1785.00
2023-05-06T09:45:26.489Z,1744.00
2023-05-06T09:46:26.533Z,1752.00
2023-05-06T09:47:26.677Z,1762.00
2023-05-06T09:48:26.628Z,1775.00
2023-05-06T09:49:26.690Z,1772.00
2023-05-06T09:50:26.720Z,1768.00
2023-05-06T09:51:26.766Z,1755.00
2023-05-06T09:52:26.799Z,1784.00
2023-05-06T09:53:26.854Z,1795.00
2023-05-06T09:54:26.925Z,1815.00
2023-05-06T09:55:27.247Z,1793.00
2023-05-06T09:56:26.989Z,1747.00
2023-05-06T09:57:27.080Z,1726.00
2023-05-06T09:58:27.095Z,1793.00
2023-05-06T09:59:27.179Z,1788.00
2023-05-06T10:00:27.226Z,1782.00
2023-05-06T10:01:36.052Z,1748.00
2023-05-06T10:02:28.391Z,1750.00
2023-05-06T10:03:27.337Z,1758.00
2023-05-06T10:04:27.309Z,1777.00
2023-05-06T10:05:27.248Z,1792.00
2023-05-06T10:06:27.213Z,1798.00
2023-05-06T10:07:27.213Z,1804.00
2023-05-06T10:08:27.209Z,1781.00
2023-05-06T10:09:27.204Z,1784.00
2023-05-06T10:10:27.177Z,1803.00
2023-05-06T10:11:27.179Z,1782.00
2023-05-06T10:12:27.172Z,1748.00
2023-05-06T10:13:27.247Z,1742.00
2023-05-06T10:14:27.254Z,1760.00
2023-05-06T10:15:27.316Z,1779.00
2023-05-06T10:16:27.432Z,1774.00
2023-05-06T10:17:27.441Z,1791.00
2023-05-06T10:18:27.464Z,1779.00
2023-05-06T10:19:27.501Z,1783.00
2023-05-06T10:20:27.541Z,1794.00
2023-05-06T10:21:27.579Z,1799.00
2023-05-06T10:22:27.649Z,1797.00
2023-05-06T10:23:27.691Z,1788.00
2023-05-06T10:24:27.721Z,1785.00
2023-05-06T10:25:27.795Z,1762.00
2023-05-06T10:26:27.816Z,1768.00
2023-05-06T10:27:27.858Z,1788.00
2023-05-06T10:28:30.969Z,1784.00
2023-05-06T10:29:27.911Z,1801.00
2023-05-06T10:30:27.912Z,1791.00
2023-05-06T10:31:27.927Z,1803.00
2023-05-06T10:32:27.880Z,1777.00
2023-05-06T10:33:28.388Z,1729.00
2023-05-06T10:34:27.860Z,1685.00
2023-05-06T10:35:27.844Z,1701.00
2023-05-06T10:36:27.842Z,1696.00
2023-05-06T10:37:27.851Z,1658.00
2023-05-06T10:38:27.828Z,1656.00
2023-05-06T10:39:27.797Z,1681.00
2023-05-06T10:40:27.824Z,1683.00
2023-05-06T10:41:27.915Z,1718.00
2023-05-06T10:42:27.808Z,1724.00
2023-05-06T10:43:27.900Z,1712.00
2023-05-06T10:44:27.787Z,1745.00
2023-05-06T10:45:27.783Z,1759.00
2023-05-06T10:46:27.805Z,1736.00
2023-05-06T10:47:27.831Z,1744.00
2023-05-06T10:48:27.761Z,1752.00
2023-05-06T10:49:27.796Z,1743.00
2023-05-06T10:50:27.771Z,1682.00
2023-05-06T10:51:27.720Z,1656.00
2023-05-06T10:52:27.714Z,1674.00
2023-05-06T10:53:27.685Z,1648.00
2023-05-06T10:54:27.693Z,1620.00
2023-05-06T10:55:27.700Z,1669.00
2023-05-06T10:56:27.724Z,1664.00
2023-05-06T10:57:27.684Z,1682.00
2023-05-06T10:58:27.648Z,1710.00
2023-05-06T10:59:27.650Z,1723.00
2023-05-06T11:00:27.641Z,1762.00
2023-05-06T11:01:27.694Z,1774.00
2023-05-06T11:02:27.650Z,1763.00
2023-05-06T11:03:27.850Z,1747.00
2023-05-06T11:04:27.638Z,1696.00
2023-05-06T11:05:27.626Z,1703.00
2023-05-06T11:06:27.606Z,1696.00
2023-05-06T11:07:27.617Z,1645.00
2023-05-06T11:08:27.684Z,1602.00
2023-05-06T11:09:27.727Z,1626.00
2023-05-06T11:10:27.753Z,1673.00
2023-05-06T11:11:27.788Z,1677.00
2023-05-06T11:12:27.834Z,1671.00
2023-05-06T11:13:28.155Z,1659.00
2023-05-06T11:14:27.908Z,1642.00
2023-05-06T11:15:28.082Z,1644.00
2023-05-06T11:16:28.033Z,1651.00
2023-05-06T11:17:28.128Z,1662.00
2023-05-06T11:18:28.106Z,1636.00
2023-05-06T11:19:28.129Z,1650.00
2023-05-06T11:20:28.166Z,1643.00
2023-05-06T11:21:28.180Z,1651.00
2023-05-06T11:22:28.237Z,1673.00
2023-05-06T11:23:28.260Z,1672.00
2023-05-06T11:24:28.339Z,1680.00
2023-05-06T11:25:28.352Z,1679.00
2023-05-06T11:26:28.430Z,1647.00
2023-05-06T11:27:28.426Z,1650.00
2023-05-06T11:28:28.467Z,1642.00
2023-05-06T11:29:28.508Z,1655.00
2023-05-06T11:30:28.555Z,1662.00
2023-05-06T11:31:28.775Z,1637.00
2023-05-06T11:32:28.636Z,1655.00
2023-05-06T11:33:28.675Z,1647.00
2023-05-06T11:34:28.738Z,1656.00
2023-05-06T11:35:28.757Z,1647.00
2023-05-06T11:36:28.790Z,1633.00
2023-05-06T11:37:28.919Z,1649.00
2023-05-06T11:38:28.895Z,1651.00
2023-05-06T11:39:28.937Z,1659.00
2023-05-06T11:40:28.930Z,1649.00
2023-05-06T11:41:28.996Z,1660.00
2023-05-06T11:42:29.072Z,1650.00
2023-05-06T11:43:29.044Z,1650.00
2023-05-06T11:44:29.100Z,1648.00
2023-05-06T11:45:29.147Z,1645.00
2023-05-06T11:46:29.244Z,1643.00
2023-05-06T11:47:29.302Z,1649.00
2023-05-06T11:48:29.264Z,1642.00
2023-05-06T11:49:29.262Z,1656.00
2023-05-06T11:50:29.297Z,1647.00
2023-05-06T11:51:29.372Z,1656.00
2023-05-06T11:52:29.380Z,1641.00
2023-05-06T11:53:29.416Z,1619.00
2023-05-06T11:54:29.398Z,1619.00
2023-05-06T11:55:29.449Z,1618.00
2023-05-06T11:56:29.466Z,1612.00
2023-05-06T11:57:29.508Z,1626.00
2023-05-06T11:58:29.538Z,1630.00
2023-05-06T11:59:29.620Z,1642.00
2023-05-06T12:00:29.644Z,1640.00
2023-05-06T12:01:29.655Z,1625.00
2023-05-06T12:02:29.758Z,1619.00
2023-05-06T12:03:29.909Z,1579.00
2023-05-06T12:04:29.743Z,1531.00
2023-05-06T12:05:29.752Z,1501.00